Большой Вильял

Карта отелей и гостиниц, располагающихся рядом с аэропортом Большой Вильял :

Большой Вильял Марий Эл 57° 4' 54.0588" N, 48° 39' 17.2188" E
Большой Вильял Марий Эл 57° 4' 54.0588" N, 48° 39' 17.2188" E
Код аэродрома ИКАО
ZEE1
Код аэродрома RU
ЗЕЕ1
Координаты
N57.08168° E048.65478°
Превышение над уровнем моря
162
Основная полоса
14/32
Курс магнитный
138,6/318,6
Длина основной ВПП
450
Ширина основной ВПП
18
Покрытие основной ВПП
Твёрдое (асфальт)
Освещение ВПП
Нет
Тип: 
Аэродром
Класс аэродрома: 
Принадлежность: 
ГА
Статус: 
Недействующий
Сайт: 
E-mail аэродрома: 
Страна: 
Россия
Регион: 
Марий Эл
Город: 
Дополнительная информация: 
Бывшая площадка АХР. К посадке непригодна.

Найти трансфер

С помощью этой формы Вы можете найти трансфер из аэропорта Большой Вильял в город, аэропорт или вокзал:

Карта места

Javascript is required to view this map.

Погода в аэропортах:

Авиационная погода в Угольном

Регион: 
Погода METAR: 
UHMA 170600Z 32003MPS 9999 -SN BKN044 M22/M25 Q1018 R01/////// NOSIG RMK TDZ R01/32003G04MPS END R01/28002G04MPS QFE759/1013
Время наблюдения
2021-01-17T06:00:00Z
Температура C
-22.0
Точка росы
-25.0
Направление ветра
320
Скорость ветра (узлы)
6
Метео видимость
6.21
Явления погоды
-SN
Условия полета
VFR
Аэропорт подробнее: 

Авиационная погода в Берлевоге

Регион: 
Погода METAR: 
ENBV 152020Z 32014KT 9999 VCSH FEW010 SCT018 BKN32 03/00 Q1011
Время наблюдения
2021-01-15T20:20:00Z
Температура C
3.0
Точка росы
0.0
Направление ветра
320
Скорость ветра (узлы)
14
Метео видимость
6.21
Явления погоды
VCSH
Условия полета
VFR

Авиационная погода в Вардё

Регион: 
Погода METAR: 
ENSS 152020Z 27008KT 9999 5000NW VCSH SCT021 BKN045 00/M01 Q1011 RMK WIND 500FT 27010KT
Время наблюдения
2021-01-15T20:20:00Z
Температура C
0.0
Точка росы
-1.0
Направление ветра
270
Скорость ветра (узлы)
8
Метео видимость
6.21
Явления погоды
VCSH
Условия полета
VFR

Авиационная погода в Краснодаре

Регион: 
Погода METAR: 
URKK 170530Z 03009MPS 0300 R05R/0350N +SHSN BKN003 OVC020CB M05/M06 Q1004 R05R/690335 NOSIG RMK QBB090 OBST OBSC QFE750
Время наблюдения
2021-01-17T05:30:00Z
Температура C
-5.0
Точка росы
-6.0
Направление ветра
30
Скорость ветра (узлы)
17
Метео видимость
0.19
Явления погоды
+SHSN
Условия полета
LIFR
Аэропорт подробнее: